Terminal Aerodrome Forecast
Issued by NWS Quad Cities IA IL

Home | Current Version | Previous Version | Text Only | Print | Product List | Glossary On
Versions: 1 2 3 4 5 6 7 8 9 10 11 12 13 14 15 16 17 18 19 20 21
000
FTUS43 KDVN 192113 AAA
TAFDBQ
TAF AMD
KDBQ 192113Z 1921/2018 18008KT P6SM FEW250
     FM200400 17007KT P6SM SKC WS018/23030KT
     FM201600 19013G18KT P6SM FEW250=

USA.gov is the U.S. government's official web portal to all federal, state and local government web resources and services.